Time;durP1;ratioP1;P1;durP2;ratioP2;P2;SDS_P1;SDS_P2;PMS_P1;PMS_P2;Temp;Humidity;BMP_temperature;BMP_pressure;BME280_temperature;BME280_humidity;BME280_pressure;Samples;Min_cycle;Max_cycle;Signal;HPM_P1;HPM_P2
2023/03/12 00:00:33;;;;;;;1.80;1.70;;;;;;;;;;5058791;28;20542;-88
2023/03/12 00:02:59;;;;;;;1.08;1.08;;;;;;;;;;5074095;28;20061;-88
2023/03/12 00:05:26;;;;;;;3.35;3.25;;;;;;;;;;5074612;28;20385;-89
2023/03/12 00:07:52;;;;;;;0.70;0.70;;;;;;;;;;5074796;28;20094;-89
2023/03/12 00:10:19;;;;;;;1.23;1.20;;;;;;;;;;5057427;28;20562;-88
2023/03/12 00:12:47;;;;;;;1.30;1.30;;;;;;;;;;5054697;28;20049;-88
2023/03/12 00:15:13;;;;;;;1.10;1.10;;;;;;;;;;5054452;28;20049;-88
2023/03/12 00:17:40;;;;;;;1.35;1.35;;;;;;;;;;5054812;28;20063;-89
2023/03/12 00:20:07;;;;;;;3.78;3.47;;;;;;;;;;5054208;28;20110;-91
2023/03/12 00:22:34;;;;;;;0.68;0.68;;;;;;;;;;5046392;28;20506;-88
2023/03/12 00:25:00;;;;;;;0.80;0.80;;;;;;;;;;5046169;28;20079;-88
2023/03/12 00:27:27;;;;;;;1.30;1.30;;;;;;;;;;5046926;28;20452;-88
2023/03/12 00:29:55;;;;;;;2.38;2.28;;;;;;;;;;5034070;28;20107;-89
2023/03/12 00:32:21;;;;;;;1.80;1.70;;;;;;;;;;5034416;28;20045;-88
2023/03/12 00:34:50;;;;;;;0.98;0.98;;;;;;;;;;5034499;28;20057;-89
2023/03/12 00:37:16;;;;;;;0.63;0.63;;;;;;;;;;5034286;28;20098;-89
2023/03/12 00:39:43;;;;;;;0.73;0.73;;;;;;;;;;5034930;28;20053;-89
2023/03/12 00:42:09;;;;;;;1.13;1.13;;;;;;;;;;5049996;28;20042;-88
2023/03/12 00:44:36;;;;;;;1.60;1.52;;;;;;;;;;5034127;28;20045;-89
2023/03/12 00:47:04;;;;;;;1.67;1.58;;;;;;;;;;5033793;28;20050;-88
2023/03/12 00:49:30;;;;;;;2.50;2.40;;;;;;;;;;5033479;28;20045;-88
2023/03/12 00:51:57;;;;;;;2.17;2.08;;;;;;;;;;5033621;28;20045;-88
2023/03/12 00:54:23;;;;;;;1.92;1.83;;;;;;;;;;5033490;28;20539;-88
2023/03/12 00:56:50;;;;;;;1.60;1.55;;;;;;;;;;5033180;28;20096;-88
2023/03/12 00:59:16;;;;;;;1.38;1.17;;;;;;;;;;5053168;28;20048;-87
2023/03/12 01:01:43;;;;;;;5.03;4.82;;;;;;;;;;5053760;28;20463;-88
2023/03/12 01:04:11;;;;;;;1.10;1.10;;;;;;;;;;5033845;28;20107;-88
2023/03/12 01:06:38;;;;;;;1.48;1.42;;;;;;;;;;5033408;28;20049;-88
2023/03/12 01:09:05;;;;;;;1.17;1.15;;;;;;;;;;5051794;28;20045;-88
2023/03/12 01:11:32;;;;;;;0.70;0.70;;;;;;;;;;5053746;28;20107;-88
2023/03/12 01:13:59;;;;;;;2.03;1.88;;;;;;;;;;5052870;28;20045;-89
2023/03/12 01:16:27;;;;;;;2.35;2.15;;;;;;;;;;5052225;28;20428;-88
2023/03/12 01:18:53;;;;;;;0.60;0.60;;;;;;;;;;5053626;28;20102;-88
2023/03/12 01:21:21;;;;;;;1.63;1.52;;;;;;;;;;5052788;28;20049;-88
2023/03/12 01:23:47;;;;;;;0.77;0.77;;;;;;;;;;5037938;28;20505;-87
2023/03/12 01:26:14;;;;;;;4.55;4.35;;;;;;;;;;5033237;28;20464;-87
2023/03/12 01:28:41;;;;;;;2.17;2.08;;;;;;;;;;5047161;28;20104;-87
2023/03/12 01:31:08;;;;;;;2.47;2.30;;;;;;;;;;5046232;28;20079;-87
2023/03/12 01:33:34;;;;;;;2.78;2.67;;;;;;;;;;5033136;28;20045;-88
2023/03/12 01:36:01;;;;;;;2.97;2.88;;;;;;;;;;5032505;28;20049;-88
2023/03/12 01:38:29;;;;;;;2.13;2.05;;;;;;;;;;5032700;28;20057;-87
2023/03/12 01:40:55;;;;;;;1.10;1.00;;;;;;;;;;5032657;28;20103;-88
2023/03/12 01:43:27;;;;;;;1.15;1.05;;;;;;;;;;5032522;28;20049;-88
2023/03/12 01:46:01;;;;;;;1.95;1.85;;;;;;;;;;5033020;28;20049;-88
2023/03/12 01:48:28;;;;;;;2.85;2.53;;;;;;;;;;5032681;28;20061;-89
2023/03/12 01:50:55;;;;;;;1.20;1.10;;;;;;;;;;5032724;28;20107;-87
2023/03/12 01:53:22;;;;;;;1.77;1.67;;;;;;;;;;5033152;28;20080;-88
2023/03/12 01:55:49;;;;;;;0.75;0.75;;;;;;;;;;5032633;28;20402;-88
2023/03/12 01:58:16;;;;;;;0.80;0.80;;;;;;;;;;5032588;28;20072;-87
2023/03/12 02:00:43;;;;;;;0.95;0.95;;;;;;;;;;5032878;28;20124;-88
2023/03/12 02:03:10;;;;;;;1.48;1.38;;;;;;;;;;5032739;28;20104;-88
2023/03/12 02:05:42;;;;;;;1.75;1.65;;;;;;;;;;5032336;28;20111;-88
2023/03/12 02:08:09;;;;;;;1.77;1.67;;;;;;;;;;5032645;28;20049;-88
2023/03/12 02:10:35;;;;;;;2.88;2.45;;;;;;;;;;5032341;28;20676;-89
2023/03/12 02:13:03;;;;;;;1.63;1.52;;;;;;;;;;5032829;28;20107;-88
2023/03/12 02:15:30;;;;;;;3.88;3.67;;;;;;;;;;5032746;28;20459;-89
2023/03/12 02:17:56;;;;;;;2.92;2.72;;;;;;;;;;5032383;28;20382;-87
2023/03/12 02:20:25;;;;;;;1.38;1.27;;;;;;;;;;5032592;28;20199;-88
2023/03/12 02:22:55;;;;;;;1.83;1.73;;;;;;;;;;5032972;28;20144;-88
2023/03/12 02:25:29;;;;;;;0.82;0.82;;;;;;;;;;5032709;28;20049;-89
2023/03/12 02:27:56;;;;;;;1.23;1.13;;;;;;;;;;5037099;28;20037;-87
2023/03/12 02:30:23;;;;;;;1.55;1.45;;;;;;;;;;5052091;28;20493;-88
2023/03/12 02:32:50;;;;;;;0.90;0.90;;;;;;;;;;5051885;28;20413;-88
2023/03/12 02:35:17;;;;;;;1.00;0.95;;;;;;;;;;5052463;28;20049;-87
2023/03/12 02:37:47;;;;;;;0.73;0.73;;;;;;;;;;5044342;28;20042;-88
2023/03/12 02:40:17;;;;;;;1.10;1.02;;;;;;;;;;5032254;28;20041;-88
2023/03/12 02:42:45;;;;;;;0.95;0.77;;;;;;;;;;5034204;28;20046;-88
2023/03/12 02:45:11;;;;;;;1.63;1.52;;;;;;;;;;5051849;28;20049;-88
2023/03/12 02:47:38;;;;;;;1.33;1.25;;;;;;;;;;5052321;28;20109;-88
2023/03/12 02:50:05;;;;;;;1.33;1.27;;;;;;;;;;5056335;28;20459;-88
2023/03/12 02:52:34;;;;;;;1.23;1.08;;;;;;;;;;5056008;28;20505;-88
2023/03/12 02:55:01;;;;;;;2.03;1.92;;;;;;;;;;5037884;28;20056;-88
2023/03/12 02:57:27;;;;;;;1.63;1.52;;;;;;;;;;5036213;28;20088;-89
2023/03/12 02:59:55;;;;;;;1.10;1.02;;;;;;;;;;5055137;28;20099;-88
2023/03/12 03:02:21;;;;;;;1.20;1.10;;;;;;;;;;5055843;28;20484;-88
2023/03/12 03:04:48;;;;;;;0.70;0.70;;;;;;;;;;5055898;28;20107;-88
2023/03/12 03:07:14;;;;;;;1.25;1.20;;;;;;;;;;5056013;28;20053;-88
2023/03/12 03:09:41;;;;;;;2.17;1.85;;;;;;;;;;5055693;28;20106;-88
2023/03/12 03:12:07;;;;;;;1.88;1.77;;;;;;;;;;5038754;28;20045;-88
2023/03/12 03:14:34;;;;;;;0.98;0.98;;;;;;;;;;5051346;28;20048;-88
2023/03/12 03:17:02;;;;;;;1.20;1.13;;;;;;;;;;5055478;28;20056;-88
2023/03/12 03:19:28;;;;;;;1.95;1.65;;;;;;;;;;5041469;28;20058;-88
2023/03/12 03:21:55;;;;;;;1.75;1.58;;;;;;;;;;5035595;28;20049;-88
2023/03/12 03:24:21;;;;;;;1.85;1.75;;;;;;;;;;5035262;28;20493;-88
2023/03/12 03:26:48;;;;;;;1.15;1.15;;;;;;;;;;5035501;28;20119;-87
2023/03/12 03:29:15;;;;;;;2.00;1.90;;;;;;;;;;5035165;28;20049;-88
2023/03/12 03:31:42;;;;;;;0.82;0.82;;;;;;;;;;5035395;28;20045;-87
2023/03/12 03:34:10;;;;;;;1.27;1.25;;;;;;;;;;5035289;28;20049;-87
2023/03/12 03:36:36;;;;;;;12.95;3.40;;;;;;;;;;5034964;28;20061;-88
2023/03/12 03:39:03;;;;;;;1.95;1.85;;;;;;;;;;5034899;28;20493;-87
2023/03/12 03:41:31;;;;;;;2.50;2.30;;;;;;;;;;5035086;28;20057;-87
2023/03/12 03:43:58;;;;;;;2.15;2.05;;;;;;;;;;5043838;28;20132;-87
2023/03/12 03:46:25;;;;;;;1.35;1.25;;;;;;;;;;5053651;28;20080;-87
2023/03/12 03:48:51;;;;;;;1.50;1.40;;;;;;;;;;5054345;28;20045;-87
2023/03/12 03:51:19;;;;;;;2.38;2.28;;;;;;;;;;5054843;28;20044;-87
2023/03/12 03:53:46;;;;;;;1.85;1.75;;;;;;;;;;5048059;28;20553;-87
2023/03/12 03:56:13;;;;;;;1.35;1.25;;;;;;;;;;5034506;28;20053;-87
2023/03/12 03:58:40;;;;;;;2.97;2.78;;;;;;;;;;5034686;28;20057;-87
2023/03/12 04:01:06;;;;;;;0.95;0.95;;;;;;;;;;5033449;28;20529;-88
2023/03/12 04:03:33;;;;;;;1.05;1.05;;;;;;;;;;5034638;28;20049;-88
2023/03/12 04:06:00;;;;;;;1.88;1.75;;;;;;;;;;5034374;28;20054;-87
2023/03/12 04:08:28;;;;;;;1.80;1.70;;;;;;;;;;5037128;28;20044;-87
2023/03/12 04:10:55;;;;;;;1.10;1.10;;;;;;;;;;5054246;28;20049;-88
2023/03/12 04:13:22;;;;;;;1.73;1.63;;;;;;;;;;5052600;28;20103;-87
2023/03/12 04:15:49;;;;;;;2.60;2.47;;;;;;;;;;5034545;28;20049;-88
2023/03/12 04:18:15;;;;;;;1.02;1.02;;;;;;;;;;5034268;28;20091;-87
2023/03/12 04:20:42;;;;;;;0.93;0.88;;;;;;;;;;5034773;28;20045;-88
2023/03/12 04:23:08;;;;;;;1.35;1.25;;;;;;;;;;5034278;28;20493;-88
2023/03/12 04:25:36;;;;;;;1.95;1.85;;;;;;;;;;5034612;28;20041;-88
2023/03/12 04:28:03;;;;;;;2.08;1.98;;;;;;;;;;5034494;28;20120;-88
2023/03/12 04:30:30;;;;;;;1.05;1.02;;;;;;;;;;5034578;28;20099;-88
2023/03/12 04:32:56;;;;;;;1.77;1.67;;;;;;;;;;5034437;28;20057;-88
2023/03/12 04:35:23;;;;;;;1.15;1.13;;;;;;;;;;5046075;28;20053;-88
2023/03/12 04:37:50;;;;;;;1.42;1.23;;;;;;;;;;5054367;28;20059;-88
2023/03/12 04:40:18;;;;;;;2.45;2.33;;;;;;;;;;5037538;28;20057;-88
2023/03/12 04:42:46;;;;;;;2.97;2.85;;;;;;;;;;5034302;28;20444;-88
2023/03/12 04:45:13;;;;;;;2.95;2.80;;;;;;;;;;5049566;28;20538;-88
2023/03/12 04:47:39;;;;;;;1.50;1.40;;;;;;;;;;5053636;28;20045;-88
2023/03/12 04:50:07;;;;;;;1.88;1.77;;;;;;;;;;5039576;28;20448;-88
2023/03/12 04:52:33;;;;;;;1.77;1.67;;;;;;;;;;5033967;28;20136;-88
2023/03/12 04:55:00;;;;;;;2.33;2.13;;;;;;;;;;5047438;28;20102;-88
2023/03/12 04:57:26;;;;;;;0.77;0.77;;;;;;;;;;5053858;28;20060;-87
2023/03/12 04:59:54;;;;;;;1.58;1.02;;;;;;;;;;5053839;28;20107;-88
2023/03/12 05:02:20;;;;;;;1.42;1.33;;;;;;;;;;5053527;28;20106;-87
2023/03/12 05:04:47;;;;;;;1.08;0.93;;;;;;;;;;5053458;28;20531;-89
2023/03/12 05:07:13;;;;;;;0.98;0.98;;;;;;;;;;5053567;28;20099;-88
2023/03/12 05:09:40;;;;;;;0.70;0.70;;;;;;;;;;5037442;28;20057;-88
2023/03/12 05:12:07;;;;;;;2.60;2.50;;;;;;;;;;5033923;28;20058;-88
2023/03/12 05:14:33;;;;;;;1.17;1.08;;;;;;;;;;5042049;28;20110;-88
2023/03/12 05:17:01;;;;;;;1.83;1.73;;;;;;;;;;5053425;28;20053;-88
2023/03/12 05:19:27;;;;;;;2.25;2.15;;;;;;;;;;5045961;28;20057;-88
2023/03/12 05:21:54;;;;;;;0.90;0.90;;;;;;;;;;5033756;28;20390;-88
2023/03/12 05:24:21;;;;;;;2.33;2.13;;;;;;;;;;5033203;28;20103;-87
2023/03/12 05:26:48;;;;;;;1.52;1.42;;;;;;;;;;5033629;28;20053;-88
2023/03/12 05:29:14;;;;;;;3.35;2.30;;;;;;;;;;5033316;28;20451;-88
2023/03/12 05:31:41;;;;;;;1.70;1.60;;;;;;;;;;5033466;28;20110;-88
2023/03/12 05:34:10;;;;;;;1.17;1.17;;;;;;;;;;5033560;28;20107;-88
2023/03/12 05:36:37;;;;;;;2.28;2.08;;;;;;;;;;5033466;28;20057;-88
2023/03/12 05:39:04;;;;;;;2.05;1.92;;;;;;;;;;5032800;28;20095;-88
2023/03/12 05:41:30;;;;;;;1.08;1.05;;;;;;;;;;5046747;28;20057;-88
2023/03/12 05:43:57;;;;;;;1.52;1.42;;;;;;;;;;5052886;28;20049;-88
2023/03/12 05:46:24;;;;;;;4.25;4.05;;;;;;;;;;5052339;28;20393;-87
2023/03/12 05:48:50;;;;;;;1.10;1.10;;;;;;;;;;5051512;28;20053;-88
2023/03/12 05:51:18;;;;;;;1.80;1.67;;;;;;;;;;5032638;28;20421;-88
2023/03/12 05:53:45;;;;;;;1.38;1.27;;;;;;;;;;5032744;28;20456;-88
2023/03/12 05:56:13;;;;;;;1.85;1.75;;;;;;;;;;5043109;28;20103;-89
2023/03/12 05:58:40;;;;;;;1.05;1.05;;;;;;;;;;5035658;28;20065;-88
2023/03/12 06:01:11;;;;;;;1.52;1.42;;;;;;;;;;5051134;28;20095;-88
2023/03/12 06:03:37;;;;;;;;;;;;;;;;;;5053259;28;20045;-88
2023/03/12 06:06:04;;;;;;;1.83;1.73;;;;;;;;;;5034010;28;19921;-88
2023/03/12 06:08:32;;;;;;;1.58;1.48;;;;;;;;;;5032371;28;20762;-88
2023/03/12 06:10:58;;;;;;;1.38;1.27;;;;;;;;;;5050036;28;20041;-88
2023/03/12 06:13:26;;;;;;;2.50;2.40;;;;;;;;;;5052308;28;20049;-88
2023/03/12 06:15:53;;;;;;;1.05;1.05;;;;;;;;;;5052670;28;20060;-88
2023/03/12 06:18:19;;;;;;;1.45;1.35;;;;;;;;;;5052533;28;20041;-88
2023/03/12 06:20:46;;;;;;;4.45;4.28;;;;;;;;;;5052353;28;20053;-88
2023/03/12 06:23:12;;;;;;;2.00;1.90;;;;;;;;;;5052015;28;20045;-88
2023/03/12 06:25:40;;;;;;;1.77;1.67;;;;;;;;;;5052543;28;20053;-88
2023/03/12 06:28:07;;;;;;;3.17;3.08;;;;;;;;;;5052655;28;20044;-88
2023/03/12 06:30:33;;;;;;;3.00;2.60;;;;;;;;;;5038755;28;20053;-87
2023/03/12 06:33:00;;;;;;;2.13;2.03;;;;;;;;;;5032268;28;20045;-87
2023/03/12 06:35:26;;;;;;;1.02;1.02;;;;;;;;;;5054779;28;20474;-88
2023/03/12 06:37:53;;;;;;;1.63;1.52;;;;;;;;;;5052721;28;20048;-86
2023/03/12 06:40:19;;;;;;;2.03;1.92;;;;;;;;;;5056007;28;20044;-87
2023/03/12 06:42:47;;;;;;;2.08;1.98;;;;;;;;;;5052284;28;20052;-87
2023/03/12 06:45:14;;;;;;;4.32;4.15;;;;;;;;;;5042327;28;20100;-88
2023/03/12 06:47:40;;;;;;;3.67;3.45;;;;;;;;;;5032137;28;20054;-87
2023/03/12 06:50:07;;;;;;;3.05;2.88;;;;;;;;;;5032460;28;20676;-86
2023/03/12 06:52:33;;;;;;;4.53;4.22;;;;;;;;;;5032957;28;20099;-87
2023/03/12 06:55:00;;;;;;;2.08;1.98;;;;;;;;;;5039003;28;20114;-87
2023/03/12 06:57:26;;;;;;;3.03;2.83;;;;;;;;;;5052465;28;20057;-89
2023/03/12 06:59:54;;;;;;;2.35;2.25;;;;;;;;;;5052088;28;20053;-87
2023/03/12 07:02:21;;;;;;;2.65;2.55;;;;;;;;;;5050583;28;20053;-87
2023/03/12 07:04:47;;;;;;;1.85;1.75;;;;;;;;;;5047228;28;20092;-88
2023/03/12 07:07:15;;;;;;;1.70;1.60;;;;;;;;;;5031832;28;20049;-87
2023/03/12 07:09:42;;;;;;;3.13;2.92;;;;;;;;;;5031480;28;20572;-88
2023/03/12 07:12:09;;;;;;;1.55;1.45;;;;;;;;;;5031737;28;20049;-87
2023/03/12 07:14:35;;;;;;;3.70;3.50;;;;;;;;;;5032135;28;20049;-88
2023/03/12 07:17:03;;;;;;;1.90;1.80;;;;;;;;;;5031291;28;20508;-88
2023/03/12 07:19:30;;;;;;;1.70;1.60;;;;;;;;;;5031755;28;20049;-88
2023/03/12 07:21:57;;;;;;;2.28;2.17;;;;;;;;;;5031882;28;20057;-87
2023/03/12 07:24:23;;;;;;;3.45;3.33;;;;;;;;;;5030096;28;20119;-88
2023/03/12 07:26:50;;;;;;;1.48;1.38;;;;;;;;;;5031863;28;20045;-88
2023/03/12 07:29:16;;;;;;;2.90;2.78;;;;;;;;;;5031386;28;20493;-88
2023/03/12 07:31:43;;;;;;;2.03;1.92;;;;;;;;;;5031630;28;20049;-88
2023/03/12 07:34:11;;;;;;;3.10;2.97;;;;;;;;;;5031453;28;20095;-87
2023/03/12 07:36:37;;;;;;;2.08;1.98;;;;;;;;;;5052935;28;20056;-88
2023/03/12 07:39:04;;;;;;;2.40;2.25;;;;;;;;;;5054295;28;20060;-87
2023/03/12 07:41:30;;;;;;;2.33;2.22;;;;;;;;;;5054569;28;20051;-88
2023/03/12 07:43:57;;;;;;;2.05;1.75;;;;;;;;;;5055101;28;20110;-87
2023/03/12 07:46:23;;;;;;;2.08;1.92;;;;;;;;;;5054611;28;20424;-88
2023/03/12 07:48:50;;;;;;;2.97;2.85;;;;;;;;;;5055128;28;20136;-88
2023/03/12 07:51:18;;;;;;;3.03;2.90;;;;;;;;;;5053609;28;20045;-89
2023/03/12 07:53:44;;;;;;;2.90;2.78;;;;;;;;;;5054547;28;20049;-88
2023/03/12 07:56:11;;;;;;;2.15;2.05;;;;;;;;;;5054400;28;20075;-88
2023/03/12 07:58:38;;;;;;;2.10;2.00;;;;;;;;;;5054420;28;20071;-88
2023/03/12 08:01:05;;;;;;;3.08;2.97;;;;;;;;;;5054316;28;20590;-89
2023/03/12 08:03:31;;;;;;;2.30;2.13;;;;;;;;;;5055007;28;20048;-88
2023/03/12 08:05:58;;;;;;;1.63;1.52;;;;;;;;;;5054998;28;20049;-89
2023/03/12 08:08:27;;;;;;;2.28;2.17;;;;;;;;;;5039605;28;20100;-90
2023/03/12 08:10:53;;;;;;;1.83;1.75;;;;;;;;;;5044217;28;20550;-89
2023/03/12 08:13:21;;;;;;;1.73;1.67;;;;;;;;;;5054829;28;20053;-89
2023/03/12 08:15:49;;;;;;;1.90;1.80;;;;;;;;;;5054038;28;20045;-89
2023/03/12 08:18:15;;;;;;;2.25;2.15;;;;;;;;;;5056219;28;20045;-86
2023/03/12 08:20:42;;;;;;;2.58;2.47;;;;;;;;;;5051568;28;20440;-88
2023/03/12 08:23:08;;;;;;;1.73;1.63;;;;;;;;;;5053121;28;20048;-89
2023/03/12 08:25:36;;;;;;;1.95;1.85;;;;;;;;;;5054374;28;20124;-89
2023/03/12 08:28:03;;;;;;;4.25;3.95;;;;;;;;;;5054535;28;20063;-88
2023/03/12 08:30:29;;;;;;;2.45;2.35;;;;;;;;;;5054299;28;20053;-88
2023/03/12 08:32:56;;;;;;;5.85;5.43;;;;;;;;;;5054409;28;20471;-88
2023/03/12 08:35:22;;;;;;;1.65;1.45;;;;;;;;;;5054035;28;20458;-88
2023/03/12 08:37:49;;;;;;;1.92;1.83;;;;;;;;;;5051731;28;20099;-89
2023/03/12 08:40:16;;;;;;;2.60;2.50;;;;;;;;;;5053965;28;20101;-90
2023/03/12 08:42:45;;;;;;;1.65;1.55;;;;;;;;;;5054212;28;20051;-89
2023/03/12 08:45:12;;;;;;;4.35;4.13;;;;;;;;;;5053874;28;20045;-90
2023/03/12 08:47:40;;;;;;;3.13;2.92;;;;;;;;;;5053202;28;20095;-89
2023/03/12 08:50:07;;;;;;;3.47;3.30;;;;;;;;;;5053499;28;20049;-89
2023/03/12 08:52:34;;;;;;;3.30;3.20;;;;;;;;;;5053491;28;20053;-89
2023/03/12 08:55:00;;;;;;;3.20;3.10;;;;;;;;;;5052156;28;20045;-89
2023/03/12 08:57:27;;;;;;;3.13;3.03;;;;;;;;;;5053479;28;20053;-89
2023/03/12 08:59:55;;;;;;;2.67;2.58;;;;;;;;;;5053006;28;20137;-90
2023/03/12 09:02:21;;;;;;;3.50;3.38;;;;;;;;;;5053501;28;20489;-88
2023/03/12 09:04:48;;;;;;;2.35;2.15;;;;;;;;;;5053184;28;20118;-89
2023/03/12 09:07:17;;;;;;;2.58;2.47;;;;;;;;;;5053373;28;20109;-88
2023/03/12 09:09:43;;;;;;;2.75;2.65;;;;;;;;;;5049915;28;20116;-89
2023/03/12 09:12:10;;;;;;;2.47;2.38;;;;;;;;;;5033619;28;20045;-88
2023/03/12 09:14:36;;;;;;;5.07;4.72;;;;;;;;;;5033245;28;20107;-88
2023/03/12 09:17:04;;;;;;;1.83;1.73;;;;;;;;;;5033492;28;20053;-88
2023/03/12 09:19:31;;;;;;;2.55;2.45;;;;;;;;;;5033335;28;20049;-89
2023/03/12 09:21:57;;;;;;;2.72;2.45;;;;;;;;;;5047901;28;20103;-88
2023/03/12 09:24:24;;;;;;;2.50;2.35;;;;;;;;;;5053018;28;20045;-89
2023/03/12 09:26:50;;;;;;;3.17;2.97;;;;;;;;;;5039653;28;20049;-88
2023/03/12 09:29:17;;;;;;;3.75;3.58;;;;;;;;;;5033072;28;20053;-88
2023/03/12 09:31:43;;;;;;;3.20;3.08;;;;;;;;;;5042022;28;20049;-89
2023/03/12 09:34:11;;;;;;;3.53;2.22;;;;;;;;;;5053239;28;20073;-88
2023/03/12 09:36:38;;;;;;;2.88;2.70;;;;;;;;;;5052979;28;20060;-88
2023/03/12 09:39:04;;;;;;;2.33;2.20;;;;;;;;;;5052895;28;20099;-89
2023/03/12 09:41:32;;;;;;;2.55;2.40;;;;;;;;;;5052889;28;20041;-89
2023/03/12 09:44:01;;;;;;;2.70;2.60;;;;;;;;;;5044630;28;20595;-90
2023/03/12 09:46:30;;;;;;;3.05;2.85;;;;;;;;;;5052885;28;20048;-89
2023/03/12 09:48:58;;;;;;;4.10;3.88;;;;;;;;;;5053524;28;20095;-90
2023/03/12 09:51:28;;;;;;;2.70;2.60;;;;;;;;;;5052999;28;20055;-88
2023/03/12 09:53:56;;;;;;;2.63;2.53;;;;;;;;;;5052692;28;20052;-89
2023/03/12 09:56:23;;;;;;;3.83;3.55;;;;;;;;;;5052720;28;20049;-90
2023/03/12 09:58:53;;;;;;;2.67;2.50;;;;;;;;;;5041022;28;20057;-89
2023/03/12 10:01:27;;;;;;;4.35;4.15;;;;;;;;;;5033084;28;20107;-90
2023/03/12 10:04:01;;;;;;;4.25;4.05;;;;;;;;;;5033319;28;20058;-90
2023/03/12 10:06:30;;;;;;;1.80;1.63;;;;;;;;;;5034949;28;20103;-90
2023/03/12 10:09:02;;;;;;;3.97;3.83;;;;;;;;;;5036714;28;20048;-90
2023/03/12 10:11:37;;;;;;;2.63;2.50;;;;;;;;;;5052819;28;20500;-93
2023/03/12 10:14:13;;;;;;;2.17;2.08;;;;;;;;;;5052680;28;20057;-89
2023/03/12 10:16:45;;;;;;;3.50;3.30;;;;;;;;;;5038360;28;20049;-90
2023/03/12 10:19:19;;;;;;;3.80;3.60;;;;;;;;;;5066139;28;20052;-89
2023/03/12 10:21:49;;;;;;;3.72;3.53;;;;;;;;;;5073333;28;20052;-90
2023/03/12 10:24:21;;;;;;;3.28;3.10;;;;;;;;;;5074459;28;20565;-90
2023/03/12 10:26:50;;;;;;;3.08;2.85;;;;;;;;;;5064796;28;20051;-90
2023/03/12 10:29:17;;;;;;;1.40;1.33;;;;;;;;;;5055432;28;20474;-88
2023/03/12 10:31:49;;;;;;;5.65;5.43;;;;;;;;;;5055660;28;20450;-89
2023/03/12 10:34:17;;;;;;;2.80;2.70;;;;;;;;;;5035652;28;20087;-89
2023/03/12 10:36:44;;;;;;;3.88;3.67;;;;;;;;;;5038355;28;20546;-89
2023/03/12 10:39:14;;;;;;;4.65;4.43;;;;;;;;;;5052433;28;20045;-90
2023/03/12 10:41:42;;;;;;;3.15;3.03;;;;;;;;;;5052912;28;20130;-88
2023/03/12 10:44:09;;;;;;;2.97;2.78;;;;;;;;;;5053254;28;20053;-89
2023/03/12 10:46:53;;;;;;;2.90;2.70;;;;;;;;;;5045614;28;20115;-91
2023/03/12 10:49:24;;;;;;;2.25;2.15;;;;;;;;;;5032677;28;20429;-89
2023/03/12 10:51:54;;;;;;;3.00;2.80;;;;;;;;;;5043063;28;20088;-89
2023/03/12 10:54:23;;;;;;;2.90;2.80;;;;;;;;;;5032179;28;20128;-89
2023/03/12 10:56:51;;;;;;;3.10;2.92;;;;;;;;;;5031911;28;20049;-89
2023/03/12 10:59:20;;;;;;;2.88;2.78;;;;;;;;;;5031889;28;20136;-89
2023/03/12 11:01:48;;;;;;;4.10;3.70;;;;;;;;;;5031725;28;20054;-88
2023/03/12 11:04:17;;;;;;;3.22;3.08;;;;;;;;;;5031707;28;20156;-89
2023/03/12 11:06:46;;;;;;;2.83;2.63;;;;;;;;;;5035963;28;20156;-89
2023/03/12 11:09:16;;;;;;;2.90;2.80;;;;;;;;;;5052492;28;20049;-88
2023/03/12 11:11:46;;;;;;;7.75;7.35;;;;;;;;;;5056087;28;20130;-88
2023/03/12 11:14:16;;;;;;;4.75;4.20;;;;;;;;;;5056015;28;20045;-90
2023/03/12 11:16:43;;;;;;;6.22;5.93;;;;;;;;;;5055283;28;20049;-88
2023/03/12 11:19:12;;;;;;;3.67;3.53;;;;;;;;;;5055124;28;20049;-89
2023/03/12 11:21:39;;;;;;;3.15;3.05;;;;;;;;;;5055025;28;20049;-89
2023/03/12 11:24:10;;;;;;;3.65;3.45;;;;;;;;;;5054320;28;20546;-89
2023/03/12 11:26:36;;;;;;;;;;;;;;;;;;5035533;28;20520;-89
2023/03/12 11:29:05;;;;;;;2.88;2.67;;;;;;;;;;5035288;28;20088;-88
2023/03/12 11:31:33;;;;;;;3.15;2.95;;;;;;;;;;5035353;28;20092;-88
2023/03/12 11:34:03;;;;;;;3.47;2.08;;;;;;;;;;5035050;28;20076;-88
2023/03/12 11:36:34;;;;;;;3.60;3.40;;;;;;;;;;5036312;28;20045;-88
2023/03/12 11:39:03;;;;;;;3.72;3.42;;;;;;;;;;5046392;28;20049;-89
2023/03/12 11:41:34;;;;;;;3.70;3.50;;;;;;;;;;5054558;28;20507;-89
2023/03/12 11:44:15;;;;;;;2.90;2.78;;;;;;;;;;5035059;28;20049;-89
2023/03/12 11:46:49;;;;;;;3.28;3.08;;;;;;;;;;5035216;28;20095;-89
2023/03/12 11:49:21;;;;;;;3.38;3.17;;;;;;;;;;5034440;28;20049;-88
2023/03/12 11:51:52;;;;;;;2.50;2.30;;;;;;;;;;5052565;28;20386;-88
2023/03/12 11:54:36;;;;;;;1.65;1.55;;;;;;;;;;5054742;28;20492;-89
2023/03/12 11:57:06;;;;;;;2.38;2.28;;;;;;;;;;5054754;28;20455;-89
2023/03/12 11:59:48;;;;;;;3.78;3.47;;;;;;;;;;5056016;28;20047;-89
2023/03/12 12:02:34;;;;;;;4.57;4.38;;;;;;;;;;5054563;28;20132;-89
2023/03/12 12:05:18;;;;;;;3.35;3.17;;;;;;;;;;5054348;28;20045;-89
2023/03/12 12:07:48;;;;;;;2.65;2.55;;;;;;;;;;5054356;28;20103;-89
2023/03/12 12:10:22;;;;;;;3.00;2.88;;;;;;;;;;5054396;28;20048;-89
2023/03/12 12:12:51;;;;;;;2.75;2.65;;;;;;;;;;5042131;28;20049;-89
2023/03/12 12:15:24;;;;;;;2.15;2.05;;;;;;;;;;5034891;28;20095;-89
2023/03/12 12:17:56;;;;;;;2.83;2.70;;;;;;;;;;5034482;28;20115;-89
2023/03/12 12:20:28;;;;;;;2.13;2.03;;;;;;;;;;5033744;28;20100;-89
2023/03/12 12:23:04;;;;;;;2.97;2.85;;;;;;;;;;5046604;28;20508;-89
2023/03/12 12:25:38;;;;;;;1.95;1.85;;;;;;;;;;5054652;28;20565;-89
2023/03/12 12:28:17;;;;;;;3.70;3.40;;;;;;;;;;5054176;28;20053;-90
2023/03/12 12:30:52;;;;;;;3.55;3.42;;;;;;;;;;5053972;28;20106;-89
2023/03/12 12:33:27;;;;;;;3.03;2.90;;;;;;;;;;5053372;28;20098;-89
2023/03/12 12:35:53;;;;;;;2.25;2.15;;;;;;;;;;5054171;28;20083;-89
2023/03/12 12:38:28;;;;;;;2.60;2.50;;;;;;;;;;5053850;28;20091;-89
2023/03/12 12:40:55;;;;;;;3.53;3.33;;;;;;;;;;5054117;28;20099;-89
2023/03/12 12:43:27;;;;;;;9.20;4.63;;;;;;;;;;5054650;28;20045;-90
2023/03/12 12:45:57;;;;;;;4.18;3.88;;;;;;;;;;5053875;28;20089;-89
2023/03/12 12:48:26;;;;;;;3.92;3.72;;;;;;;;;;5053845;28;20485;-89
2023/03/12 12:50:54;;;;;;;3.05;2.85;;;;;;;;;;5053536;28;20045;-89
2023/03/12 12:53:22;;;;;;;3.80;3.60;;;;;;;;;;5053607;28;20166;-90
2023/03/12 12:55:54;;;;;;;2.15;2.05;;;;;;;;;;5053501;28;20052;-89
2023/03/12 12:58:23;;;;;;;1.38;1.35;;;;;;;;;;5053657;28;20114;-89
2023/03/12 13:00:50;;;;;;;2.30;2.20;;;;;;;;;;5053354;28;20489;-89
2023/03/12 13:03:19;;;;;;;2.47;2.38;;;;;;;;;;5039958;28;20045;-89
2023/03/12 13:05:49;;;;;;;2.83;2.63;;;;;;;;;;5047117;28;20110;-88
2023/03/12 13:08:35;;;;;;;3.80;3.60;;;;;;;;;;5046761;28;20480;-89
2023/03/12 13:11:04;;;;;;;4.53;4.32;;;;;;;;;;5052522;28;20099;-89
2023/03/12 13:13:30;;;;;;;3.08;2.97;;;;;;;;;;5052951;28;20079;-89
2023/03/12 13:16:11;;;;;;;2.58;2.47;;;;;;;;;;5053201;28;20049;-89
2023/03/12 13:18:39;;;;;;;3.05;2.95;;;;;;;;;;5037041;28;20103;-89
2023/03/12 13:21:20;;;;;;;2.55;2.35;;;;;;;;;;5044560;28;20052;-88
2023/03/12 13:23:54;;;;;;;6.07;5.78;;;;;;;;;;5058151;28;20506;-88
2023/03/12 13:26:23;;;;;;;1.88;1.77;;;;;;;;;;5072995;28;20496;-88
2023/03/12 13:28:58;;;;;;;4.20;4.00;;;;;;;;;;5073361;28;20055;-88
2023/03/12 13:31:36;;;;;;;2.10;2.00;;;;;;;;;;5072909;28;20488;-88
2023/03/12 13:34:29;;;;;;;2.95;2.85;;;;;;;;;;5072941;28;20131;-88
2023/03/12 13:36:58;;;;;;;2.55;2.33;;;;;;;;;;5061807;28;20075;-88
2023/03/12 13:39:30;;;;;;;3.83;3.63;;;;;;;;;;5059487;28;20049;-87
2023/03/12 13:41:57;;;;;;;2.13;2.03;;;;;;;;;;5068508;28;20045;-89
2023/03/12 13:44:38;;;;;;;3.65;3.53;;;;;;;;;;5032337;28;20045;-88
2023/03/12 13:47:05;;;;;;;4.68;4.47;;;;;;;;;;5053364;28;20060;-89
2023/03/12 13:49:40;;;;;;;3.35;3.22;;;;;;;;;;5071964;28;20554;-89
2023/03/12 13:52:18;;;;;;;3.67;3.53;;;;;;;;;;5069013;28;20059;-89
2023/03/12 13:54:47;;;;;;;3.63;3.33;;;;;;;;;;5032670;28;20103;-87
2023/03/12 13:57:23;;;;;;;3.40;3.28;;;;;;;;;;5048310;28;20485;-89
2023/03/12 13:59:50;;;;;;;3.17;3.05;;;;;;;;;;5057533;28;20048;-89
2023/03/12 14:02:21;;;;;;;1.58;1.48;;;;;;;;;;5061696;28;20102;-88
2023/03/12 14:04:51;;;;;;;2.60;2.50;;;;;;;;;;5061129;28;20087;-89
2023/03/12 14:07:25;;;;;;;3.05;2.92;;;;;;;;;;5053300;28;20056;-88
2023/03/12 14:09:56;;;;;;;2.97;2.88;;;;;;;;;;5061409;28;20106;-89
2023/03/12 14:12:26;;;;;;;2.40;2.30;;;;;;;;;;5056355;28;20106;-88
2023/03/12 14:14:58;;;;;;;1.88;1.77;;;;;;;;;;5058503;28;20102;-89
2023/03/12 14:17:26;;;;;;;1.88;1.77;;;;;;;;;;5067280;28;20107;-88
2023/03/12 14:19:57;;;;;;;3.53;3.05;;;;;;;;;;5052435;28;20744;-88
2023/03/12 14:22:24;;;;;;;3.13;2.92;;;;;;;;;;5064384;28;20052;-88
2023/03/12 14:24:53;;;;;;;3.08;2.95;;;;;;;;;;5055336;28;20094;-88
2023/03/12 14:27:23;;;;;;;2.15;2.05;;;;;;;;;;5061469;28;20051;-89
2023/03/12 14:29:52;;;;;;;1.73;1.63;;;;;;;;;;5052147;28;20062;-88
2023/03/12 14:32:19;;;;;;;1.75;1.67;;;;;;;;;;5039448;28;20124;-89
2023/03/12 14:34:47;;;;;;;2.08;1.98;;;;;;;;;;5054990;28;20053;-89
2023/03/12 14:37:17;;;;;;;2.45;2.35;;;;;;;;;;5052429;28;20048;-89
2023/03/12 14:39:46;;;;;;;3.28;3.13;;;;;;;;;;5032264;28;20045;-89
2023/03/12 14:42:18;;;;;;;6.35;5.95;;;;;;;;;;5032203;28;20433;-89
2023/03/12 14:44:53;;;;;;;2.97;2.78;;;;;;;;;;5034023;28;20057;-89
2023/03/12 14:47:19;;;;;;;3.30;3.15;;;;;;;;;;5035536;28;20497;-89
2023/03/12 14:49:46;;;;;;;1.80;1.70;;;;;;;;;;5036366;28;20053;-88